sensor_id;sensor_type;location;lat;lon;timestamp;temperature;humidity
26641;DHT22;14269;47.358;0.724;2024-02-21T00:00:56;14.0;56.0
26641;DHT22;14269;47.358;0.724;2024-02-21T00:03:28;13.0;57.0
26641;DHT22;14269;47.358;0.724;2024-02-21T00:05:59;14.0;57.0
26641;DHT22;14269;47.358;0.724;2024-02-21T00:08:31;14.0;57.0
26641;DHT22;14269;47.358;0.724;2024-02-21T00:11:03;14.0;56.0
26641;DHT22;14269;47.358;0.724;2024-02-21T00:13:34;14.0;57.0
26641;DHT22;14269;47.358;0.724;2024-02-21T00:16:06;14.0;56.0
26641;DHT22;14269;47.358;0.724;2024-02-21T00:18:37;14.0;57.0
26641;DHT22;14269;47.358;0.724;2024-02-21T00:21:09;13.0;57.0
26641;DHT22;14269;47.358;0.724;2024-02-21T00:23:41;13.0;57.0
26641;DHT22;14269;47.358;0.724;2024-02-21T00:26:12;14.0;57.0
26641;DHT22;14269;47.358;0.724;2024-02-21T00:28:44;13.0;57.0
26641;DHT22;14269;47.358;0.724;2024-02-21T00:31:16;13.0;57.0
26641;DHT22;14269;47.358;0.724;2024-02-21T00:33:47;13.0;57.0
26641;DHT22;14269;47.358;0.724;2024-02-21T00:36:19;13.0;57.0
26641;DHT22;14269;47.358;0.724;2024-02-21T00:38:51;13.0;57.0
26641;DHT22;14269;47.358;0.724;2024-02-21T00:41:22;13.0;57.0
26641;DHT22;14269;47.358;0.724;2024-02-21T00:43:54;13.0;58.0
26641;DHT22;14269;47.358;0.724;2024-02-21T00:46:25;13.0;58.0
26641;DHT22;14269;47.358;0.724;2024-02-21T00:48:57;13.0;58.0
26641;DHT22;14269;47.358;0.724;2024-02-21T00:51:29;13.0;59.0
26641;DHT22;14269;47.358;0.724;2024-02-21T00:54:01;12.0;60.0
26641;DHT22;14269;47.358;0.724;2024-02-21T00:56:32;12.0;60.0
26641;DHT22;14269;47.358;0.724;2024-02-21T00:59:05;12.0;60.0
26641;DHT22;14269;47.358;0.724;2024-02-21T01:01:35;12.0;60.0
26641;DHT22;14269;47.358;0.724;2024-02-21T01:04:07;12.0;60.0
26641;DHT22;14269;47.358;0.724;2024-02-21T01:06:40;12.0;60.0
26641;DHT22;14269;47.358;0.724;2024-02-21T01:09:20;12.0;59.0
26641;DHT22;14269;47.358;0.724;2024-02-21T01:11:53;12.0;60.0
26641;DHT22;14269;47.358;0.724;2024-02-21T01:14:24;12.0;60.0
26641;DHT22;14269;47.358;0.724;2024-02-21T01:16:55;12.0;60.0
26641;DHT22;14269;47.358;0.724;2024-02-21T01:19:27;12.0;61.0
26641;DHT22;14269;47.358;0.724;2024-02-21T01:21:59;12.0;61.0
26641;DHT22;14269;47.358;0.724;2024-02-21T01:24:30;12.0;60.0
26641;DHT22;14269;47.358;0.724;2024-02-21T01:27:03;12.0;60.0
26641;DHT22;14269;47.358;0.724;2024-02-21T01:29:34;12.0;60.0
26641;DHT22;14269;47.358;0.724;2024-02-21T01:32:06;12.0;60.0
26641;DHT22;14269;47.358;0.724;2024-02-21T01:34:37;12.0;60.0
26641;DHT22;14269;47.358;0.724;2024-02-21T01:37:09;12.0;60.0
26641;DHT22;14269;47.358;0.724;2024-02-21T01:39:40;12.0;60.0
26641;DHT22;14269;47.358;0.724;2024-02-21T01:42:12;12.0;60.0
26641;DHT22;14269;47.358;0.724;2024-02-21T01:44:43;12.0;60.0
26641;DHT22;14269;47.358;0.724;2024-02-21T01:47:15;12.0;60.0
26641;DHT22;14269;47.358;0.724;2024-02-21T01:49:47;12.0;60.0
26641;DHT22;14269;47.358;0.724;2024-02-21T01:52:18;12.0;60.0
26641;DHT22;14269;47.358;0.724;2024-02-21T01:54:50;12.0;60.0
26641;DHT22;14269;47.358;0.724;2024-02-21T01:57:22;12.0;60.0
26641;DHT22;14269;47.358;0.724;2024-02-21T01:59:53;12.0;60.0
26641;DHT22;14269;47.358;0.724;2024-02-21T02:02:25;12.0;60.0
26641;DHT22;14269;47.358;0.724;2024-02-21T02:04:57;12.0;60.0
26641;DHT22;14269;47.358;0.724;2024-02-21T02:07:28;12.0;60.0
26641;DHT22;14269;47.358;0.724;2024-02-21T02:10:00;12.0;60.0
26641;DHT22;14269;47.358;0.724;2024-02-21T02:12:32;12.0;60.0
26641;DHT22;14269;47.358;0.724;2024-02-21T02:15:05;12.0;60.0
26641;DHT22;14269;47.358;0.724;2024-02-21T02:17:45;12.0;59.0
26641;DHT22;14269;47.358;0.724;2024-02-21T02:20:17;12.0;59.0
26641;DHT22;14269;47.358;0.724;2024-02-21T02:22:49;12.0;59.0
26641;DHT22;14269;47.358;0.724;2024-02-21T02:25:20;13.0;59.0
26641;DHT22;14269;47.358;0.724;2024-02-21T02:27:53;13.0;58.0
26641;DHT22;14269;47.358;0.724;2024-02-21T02:30:34;13.0;58.0
26641;DHT22;14269;47.358;0.724;2024-02-21T02:33:05;13.0;58.0
26641;DHT22;14269;47.358;0.724;2024-02-21T02:35:37;13.0;58.0
26641;DHT22;14269;47.358;0.724;2024-02-21T02:38:09;13.0;59.0
26641;DHT22;14269;47.358;0.724;2024-02-21T02:40:50;13.0;59.0
26641;DHT22;14269;47.358;0.724;2024-02-21T02:43:22;13.0;58.0
26641;DHT22;14269;47.358;0.724;2024-02-21T02:45:53;13.0;58.0
26641;DHT22;14269;47.358;0.724;2024-02-21T02:48:25;12.0;59.0
26641;DHT22;14269;47.358;0.724;2024-02-21T02:50:57;12.0;59.0
26641;DHT22;14269;47.358;0.724;2024-02-21T02:53:28;13.0;59.0
26641;DHT22;14269;47.358;0.724;2024-02-21T02:56:00;13.0;58.0
26641;DHT22;14269;47.358;0.724;2024-02-21T02:58:32;12.0;59.0
26641;DHT22;14269;47.358;0.724;2024-02-21T03:01:06;13.0;59.0
26641;DHT22;14269;47.358;0.724;2024-02-21T03:03:46;12.0;59.0
26641;DHT22;14269;47.358;0.724;2024-02-21T03:06:27;13.0;58.0
26641;DHT22;14269;47.358;0.724;2024-02-21T03:09:00;13.0;58.0
26641;DHT22;14269;47.358;0.724;2024-02-21T03:11:41;13.0;58.0
26641;DHT22;14269;47.358;0.724;2024-02-21T03:14:22;13.0;58.0
26641;DHT22;14269;47.358;0.724;2024-02-21T03:16:53;12.0;59.0
26641;DHT22;14269;47.358;0.724;2024-02-21T03:19:25;12.0;59.0
26641;DHT22;14269;47.358;0.724;2024-02-21T03:21:57;12.0;59.0
26641;DHT22;14269;47.358;0.724;2024-02-21T03:24:31;12.0;60.0
26641;DHT22;14269;47.358;0.724;2024-02-21T03:27:10;12.0;60.0
26641;DHT22;14269;47.358;0.724;2024-02-21T03:29:42;12.0;60.0
26641;DHT22;14269;47.358;0.724;2024-02-21T03:32:13;12.0;60.0
26641;DHT22;14269;47.358;0.724;2024-02-21T03:34:45;12.0;59.0
26641;DHT22;14269;47.358;0.724;2024-02-21T03:37:17;12.0;59.0
26641;DHT22;14269;47.358;0.724;2024-02-21T03:39:48;12.0;59.0
26641;DHT22;14269;47.358;0.724;2024-02-21T03:42:20;12.0;59.0
26641;DHT22;14269;47.358;0.724;2024-02-21T03:44:52;12.0;59.0
26641;DHT22;14269;47.358;0.724;2024-02-21T03:47:23;12.0;60.0
26641;DHT22;14269;47.358;0.724;2024-02-21T03:49:55;12.0;59.0
26641;DHT22;14269;47.358;0.724;2024-02-21T03:52:26;12.0;59.0
26641;DHT22;14269;47.358;0.724;2024-02-21T03:54:58;12.0;59.0
26641;DHT22;14269;47.358;0.724;2024-02-21T03:57:30;13.0;58.0
26641;DHT22;14269;47.358;0.724;2024-02-21T04:00:04;12.0;58.0
26641;DHT22;14269;47.358;0.724;2024-02-21T04:02:43;12.0;60.0
26641;DHT22;14269;47.358;0.724;2024-02-21T04:05:16;12.0;60.0
26641;DHT22;14269;47.358;0.724;2024-02-21T04:07:47;12.0;60.0
26641;DHT22;14269;47.358;0.724;2024-02-21T04:10:18;12.0;60.0
26641;DHT22;14269;47.358;0.724;2024-02-21T04:12:50;12.0;60.0
26641;DHT22;14269;47.358;0.724;2024-02-21T04:15:21;12.0;60.0
26641;DHT22;14269;47.358;0.724;2024-02-21T04:17:53;12.0;60.0
26641;DHT22;14269;47.358;0.724;2024-02-21T04:20:25;12.0;60.0
26641;DHT22;14269;47.358;0.724;2024-02-21T04:22:57;12.0;60.0
26641;DHT22;14269;47.358;0.724;2024-02-21T04:25:28;11.0;61.0
26641;DHT22;14269;47.358;0.724;2024-02-21T04:28:00;12.0;61.0
26641;DHT22;14269;47.358;0.724;2024-02-21T04:30:31;12.0;61.0
26641;DHT22;14269;47.358;0.724;2024-02-21T04:33:03;12.0;61.0
26641;DHT22;14269;47.358;0.724;2024-02-21T04:35:36;12.0;60.0
26641;DHT22;14269;47.358;0.724;2024-02-21T04:38:16;12.0;60.0
26641;DHT22;14269;47.358;0.724;2024-02-21T04:40:48;12.0;60.0
26641;DHT22;14269;47.358;0.724;2024-02-21T04:43:20;12.0;60.0
26641;DHT22;14269;47.358;0.724;2024-02-21T04:45:53;12.0;59.0
26641;DHT22;14269;47.358;0.724;2024-02-21T04:48:33;12.0;59.0
26641;DHT22;14269;47.358;0.724;2024-02-21T04:51:05;12.0;60.0
26641;DHT22;14269;47.358;0.724;2024-02-21T04:53:36;12.0;60.0
26641;DHT22;14269;47.358;0.724;2024-02-21T04:56:08;11.0;61.0
26641;DHT22;14269;47.358;0.724;2024-02-21T04:58:40;12.0;60.0
26641;DHT22;14269;47.358;0.724;2024-02-21T05:01:12;12.0;60.0
26641;DHT22;14269;47.358;0.724;2024-02-21T05:03:43;12.0;60.0
26641;DHT22;14269;47.358;0.724;2024-02-21T05:06:15;12.0;60.0
26641;DHT22;14269;47.358;0.724;2024-02-21T05:08:46;12.0;59.0
26641;DHT22;14269;47.358;0.724;2024-02-21T05:11:18;12.0;60.0
26641;DHT22;14269;47.358;0.724;2024-02-21T05:13:50;12.0;60.0
26641;DHT22;14269;47.358;0.724;2024-02-21T05:16:21;12.0;59.0
26641;DHT22;14269;47.358;0.724;2024-02-21T05:18:53;12.0;60.0
26641;DHT22;14269;47.358;0.724;2024-02-21T05:21:24;12.0;61.0
26641;DHT22;14269;47.358;0.724;2024-02-21T05:23:56;12.0;60.0
26641;DHT22;14269;47.358;0.724;2024-02-21T05:26:28;12.0;60.0
26641;DHT22;14269;47.358;0.724;2024-02-21T05:28:59;12.0;60.0
26641;DHT22;14269;47.358;0.724;2024-02-21T05:31:54;12.0;60.0
26641;DHT22;14269;47.358;0.724;2024-02-21T05:34:33;12.0;60.0
26641;DHT22;14269;47.358;0.724;2024-02-21T05:37:05;12.0;59.0
26641;DHT22;14269;47.358;0.724;2024-02-21T05:39:36;12.0;60.0
26641;DHT22;14269;47.358;0.724;2024-02-21T05:42:08;12.0;60.0
26641;DHT22;14269;47.358;0.724;2024-02-21T05:44:40;12.0;60.0
26641;DHT22;14269;47.358;0.724;2024-02-21T05:47:15;12.0;59.0
26641;DHT22;14269;47.358;0.724;2024-02-21T05:49:54;12.0;59.0
26641;DHT22;14269;47.358;0.724;2024-02-21T05:52:35;12.0;59.0
26641;DHT22;14269;47.358;0.724;2024-02-21T05:55:07;12.0;60.0
26641;DHT22;14269;47.358;0.724;2024-02-21T05:57:38;12.0;59.0
26641;DHT22;14269;47.358;0.724;2024-02-21T06:00:10;12.0;59.0
26641;DHT22;14269;47.358;0.724;2024-02-21T06:02:42;12.0;59.0
26641;DHT22;14269;47.358;0.724;2024-02-21T06:05:13;12.0;59.0
26641;DHT22;14269;47.358;0.724;2024-02-21T06:07:45;12.0;58.0
26641;DHT22;14269;47.358;0.724;2024-02-21T06:10:16;12.0;58.0
26641;DHT22;14269;47.358;0.724;2024-02-21T06:12:48;12.0;58.0
26641;DHT22;14269;47.358;0.724;2024-02-21T06:15:20;12.0;59.0
26641;DHT22;14269;47.358;0.724;2024-02-21T06:17:51;12.0;59.0
26641;DHT22;14269;47.358;0.724;2024-02-21T06:20:23;12.0;58.0
26641;DHT22;14269;47.358;0.724;2024-02-21T06:22:54;12.0;60.0
26641;DHT22;14269;47.358;0.724;2024-02-21T06:25:26;12.0;59.0
26641;DHT22;14269;47.358;0.724;2024-02-21T06:27:58;12.0;58.0
26641;DHT22;14269;47.358;0.724;2024-02-21T06:30:29;12.0;57.0
26641;DHT22;14269;47.358;0.724;2024-02-21T06:33:03;12.0;58.0
26641;DHT22;14269;47.358;0.724;2024-02-21T06:35:46;12.0;58.0
26641;DHT22;14269;47.358;0.724;2024-02-21T06:38:25;12.0;58.0
26641;DHT22;14269;47.358;0.724;2024-02-21T06:40:58;12.0;59.0
26641;DHT22;14269;47.358;0.724;2024-02-21T06:43:38;12.0;58.0
26641;DHT22;14269;47.358;0.724;2024-02-21T06:46:10;12.0;58.0
26641;DHT22;14269;47.358;0.724;2024-02-21T06:48:41;12.0;59.0
26641;DHT22;14269;47.358;0.724;2024-02-21T06:51:13;12.0;59.0
26641;DHT22;14269;47.358;0.724;2024-02-21T06:53:45;12.0;59.0
26641;DHT22;14269;47.358;0.724;2024-02-21T06:56:16;12.0;59.0
26641;DHT22;14269;47.358;0.724;2024-02-21T06:58:48;12.0;58.0
26641;DHT22;14269;47.358;0.724;2024-02-21T07:01:19;12.0;58.0
26641;DHT22;14269;47.358;0.724;2024-02-21T07:03:51;12.0;58.0
26641;DHT22;14269;47.358;0.724;2024-02-21T07:06:23;12.0;58.0
26641;DHT22;14269;47.358;0.724;2024-02-21T07:08:54;12.0;58.0
26641;DHT22;14269;47.358;0.724;2024-02-21T07:11:26;12.0;59.0
26641;DHT22;14269;47.358;0.724;2024-02-21T07:13:58;12.0;59.0
26641;DHT22;14269;47.358;0.724;2024-02-21T07:16:29;12.0;59.0
26641;DHT22;14269;47.358;0.724;2024-02-21T07:19:11;12.0;59.0
26641;DHT22;14269;47.358;0.724;2024-02-21T07:21:43;12.0;59.0
26641;DHT22;14269;47.358;0.724;2024-02-21T07:24:14;12.0;59.0
26641;DHT22;14269;47.358;0.724;2024-02-21T07:26:46;12.0;60.0
26641;DHT22;14269;47.358;0.724;2024-02-21T07:29:18;12.0;59.0
26641;DHT22;14269;47.358;0.724;2024-02-21T07:31:51;12.0;59.0
26641;DHT22;14269;47.358;0.724;2024-02-21T07:34:31;12.0;59.0
26641;DHT22;14269;47.358;0.724;2024-02-21T07:37:03;12.0;59.0
26641;DHT22;14269;47.358;0.724;2024-02-21T07:39:36;12.0;58.0
26641;DHT22;14269;47.358;0.724;2024-02-21T07:42:16;12.0;58.0
26641;DHT22;14269;47.358;0.724;2024-02-21T07:44:48;12.0;58.0
26641;DHT22;14269;47.358;0.724;2024-02-21T07:47:20;12.0;58.0
26641;DHT22;14269;47.358;0.724;2024-02-21T07:49:51;13.0;57.0
26641;DHT22;14269;47.358;0.724;2024-02-21T07:52:23;13.0;56.0
26641;DHT22;14269;47.358;0.724;2024-02-21T07:55:05;13.0;57.0
26641;DHT22;14269;47.358;0.724;2024-02-21T07:57:36;13.0;56.0
26641;DHT22;14269;47.358;0.724;2024-02-21T08:00:09;13.0;56.0
26641;DHT22;14269;47.358;0.724;2024-02-21T08:02:50;13.0;55.0
26641;DHT22;14269;47.358;0.724;2024-02-21T08:05:22;13.0;56.0
26641;DHT22;14269;47.358;0.724;2024-02-21T08:07:53;13.0;56.0
26641;DHT22;14269;47.358;0.724;2024-02-21T08:10:24;13.0;56.0
26641;DHT22;14269;47.358;0.724;2024-02-21T08:12:56;13.0;55.0
26641;DHT22;14269;47.358;0.724;2024-02-21T08:15:29;13.0;55.0
26641;DHT22;14269;47.358;0.724;2024-02-21T08:18:10;13.0;56.0
26641;DHT22;14269;47.358;0.724;2024-02-21T08:20:41;12.0;58.0
26641;DHT22;14269;47.358;0.724;2024-02-21T08:23:16;13.0;57.0
26641;DHT22;14269;47.358;0.724;2024-02-21T08:25:55;13.0;56.0
26641;DHT22;14269;47.358;0.724;2024-02-21T08:28:26;13.0;55.0
26641;DHT22;14269;47.358;0.724;2024-02-21T08:30:58;13.0;55.0
26641;DHT22;14269;47.358;0.724;2024-02-21T08:33:30;13.0;55.0
26641;DHT22;14269;47.358;0.724;2024-02-21T08:36:01;13.0;54.0
26641;DHT22;14269;47.358;0.724;2024-02-21T08:38:43;13.0;55.0
26641;DHT22;14269;47.358;0.724;2024-02-21T08:41:14;13.0;55.0
26641;DHT22;14269;47.358;0.724;2024-02-21T08:43:46;13.0;55.0
26641;DHT22;14269;47.358;0.724;2024-02-21T08:46:18;13.0;55.0
26641;DHT22;14269;47.358;0.724;2024-02-21T08:48:50;13.0;55.0
26641;DHT22;14269;47.358;0.724;2024-02-21T08:51:31;13.0;55.0
26641;DHT22;14269;47.358;0.724;2024-02-21T08:54:03;13.0;55.0
26641;DHT22;14269;47.358;0.724;2024-02-21T08:56:35;13.0;56.0
26641;DHT22;14269;47.358;0.724;2024-02-21T08:59:06;13.0;56.0
26641;DHT22;14269;47.358;0.724;2024-02-21T09:01:38;13.0;56.0
26641;DHT22;14269;47.358;0.724;2024-02-21T09:04:09;13.0;55.0
26641;DHT22;14269;47.358;0.724;2024-02-21T09:06:42;13.0;55.0
26641;DHT22;14269;47.358;0.724;2024-02-21T09:09:24;13.0;55.0
26641;DHT22;14269;47.358;0.724;2024-02-21T09:11:54;13.0;56.0
26641;DHT22;14269;47.358;0.724;2024-02-21T09:14:26;13.0;55.0
26641;DHT22;14269;47.358;0.724;2024-02-21T09:16:58;13.0;55.0
26641;DHT22;14269;47.358;0.724;2024-02-21T09:19:29;13.0;55.0
26641;DHT22;14269;47.358;0.724;2024-02-21T09:22:01;13.0;56.0
26641;DHT22;14269;47.358;0.724;2024-02-21T09:24:33;13.0;55.0
26641;DHT22;14269;47.358;0.724;2024-02-21T09:27:06;13.0;54.0
26641;DHT22;14269;47.358;0.724;2024-02-21T09:29:46;13.0;54.0
26641;DHT22;14269;47.358;0.724;2024-02-21T09:32:19;14.0;54.0
26641;DHT22;14269;47.358;0.724;2024-02-21T09:34:49;13.0;56.0
26641;DHT22;14269;47.358;0.724;2024-02-21T09:37:21;13.0;55.0
26641;DHT22;14269;47.358;0.724;2024-02-21T09:39:53;13.0;55.0
26641;DHT22;14269;47.358;0.724;2024-02-21T09:42:31;13.0;55.0
26641;DHT22;14269;47.358;0.724;2024-02-21T09:45:10;14.0;54.0
26641;DHT22;14269;47.358;0.724;2024-02-21T09:48:02;14.0;54.0
26641;DHT22;14269;47.358;0.724;2024-02-21T09:50:41;14.0;54.0
26641;DHT22;14269;47.358;0.724;2024-02-21T09:53:24;14.0;54.0
26641;DHT22;14269;47.358;0.724;2024-02-21T09:56:04;14.0;54.0
26641;DHT22;14269;47.358;0.724;2024-02-21T09:58:46;14.0;54.0
26641;DHT22;14269;47.358;0.724;2024-02-21T10:01:27;14.0;54.0
26641;DHT22;14269;47.358;0.724;2024-02-21T10:03:58;13.0;55.0
26641;DHT22;14269;47.358;0.724;2024-02-21T10:06:30;14.0;54.0
26641;DHT22;14269;47.358;0.724;2024-02-21T10:09:02;13.0;55.0
26641;DHT22;14269;47.358;0.724;2024-02-21T10:11:36;14.0;55.0
26641;DHT22;14269;47.358;0.724;2024-02-21T10:14:15;14.0;54.0
26641;DHT22;14269;47.358;0.724;2024-02-21T10:16:48;14.0;53.0
26641;DHT22;14269;47.358;0.724;2024-02-21T10:19:28;14.0;54.0
26641;DHT22;14269;47.358;0.724;2024-02-21T10:22:02;14.0;54.0
26641;DHT22;14269;47.358;0.724;2024-02-21T10:24:42;14.0;54.0
26641;DHT22;14269;47.358;0.724;2024-02-21T10:27:13;14.0;54.0
26641;DHT22;14269;47.358;0.724;2024-02-21T10:29:49;14.0;53.0
26641;DHT22;14269;47.358;0.724;2024-02-21T10:32:28;15.0;53.0
26641;DHT22;14269;47.358;0.724;2024-02-21T10:35:10;15.0;52.0
26641;DHT22;14269;47.358;0.724;2024-02-21T10:37:55;15.0;52.0
26641;DHT22;14269;47.358;0.724;2024-02-21T10:40:32;15.0;52.0
26641;DHT22;14269;47.358;0.724;2024-02-21T10:43:06;14.0;53.0
26641;DHT22;14269;47.358;0.724;2024-02-21T10:45:48;15.0;52.0
26641;DHT22;14269;47.358;0.724;2024-02-21T10:48:33;14.0;52.0
26641;DHT22;14269;47.358;0.724;2024-02-21T10:51:15;15.0;52.0
26641;DHT22;14269;47.358;0.724;2024-02-21T10:54:06;15.0;52.0
26641;DHT22;14269;47.358;0.724;2024-02-21T10:56:43;15.0;51.0
26641;DHT22;14269;47.358;0.724;2024-02-21T10:59:14;14.0;53.0
26641;DHT22;14269;47.358;0.724;2024-02-21T11:01:56;14.0;53.0
26641;DHT22;14269;47.358;0.724;2024-02-21T11:04:28;15.0;52.0
26641;DHT22;14269;47.358;0.724;2024-02-21T11:07:10;15.0;53.0
26641;DHT22;14269;47.358;0.724;2024-02-21T11:09:50;14.0;53.0
26641;DHT22;14269;47.358;0.724;2024-02-21T11:12:23;15.0;52.0
26641;DHT22;14269;47.358;0.724;2024-02-21T11:15:05;15.0;52.0
26641;DHT22;14269;47.358;0.724;2024-02-21T11:17:36;14.0;53.0
26641;DHT22;14269;47.358;0.724;2024-02-21T11:20:12;15.0;52.0
26641;DHT22;14269;47.358;0.724;2024-02-21T11:22:50;14.0;53.0
26641;DHT22;14269;47.358;0.724;2024-02-21T11:25:22;15.0;53.0
26641;DHT22;14269;47.358;0.724;2024-02-21T11:27:59;14.0;54.0
26641;DHT22;14269;47.358;0.724;2024-02-21T11:30:36;14.0;54.0
26641;DHT22;14269;47.358;0.724;2024-02-21T11:33:17;15.0;53.0
26641;DHT22;14269;47.358;0.724;2024-02-21T11:35:48;14.0;53.0
26641;DHT22;14269;47.358;0.724;2024-02-21T11:38:23;15.0;53.0
26641;DHT22;14269;47.358;0.724;2024-02-21T11:41:02;15.0;53.0
26641;DHT22;14269;47.358;0.724;2024-02-21T11:43:33;15.0;53.0
26641;DHT22;14269;47.358;0.724;2024-02-21T11:46:05;15.0;53.0
26641;DHT22;14269;47.358;0.724;2024-02-21T11:48:50;15.0;52.0
26641;DHT22;14269;47.358;0.724;2024-02-21T11:51:28;15.0;52.0
26641;DHT22;14269;47.358;0.724;2024-02-21T11:54:00;14.0;53.0
26641;DHT22;14269;47.358;0.724;2024-02-21T11:56:32;14.0;53.0
26641;DHT22;14269;47.358;0.724;2024-02-21T11:59:03;14.0;54.0
26641;DHT22;14269;47.358;0.724;2024-02-21T12:01:46;15.0;53.0
26641;DHT22;14269;47.358;0.724;2024-02-21T12:04:17;14.0;54.0
26641;DHT22;14269;47.358;0.724;2024-02-21T12:06:59;14.0;54.0
26641;DHT22;14269;47.358;0.724;2024-02-21T12:09:30;14.0;53.0
26641;DHT22;14269;47.358;0.724;2024-02-21T12:12:03;14.0;54.0
26641;DHT22;14269;47.358;0.724;2024-02-21T12:14:43;14.0;54.0
26641;DHT22;14269;47.358;0.724;2024-02-21T12:17:15;14.0;54.0
26641;DHT22;14269;47.358;0.724;2024-02-21T12:19:47;14.0;55.0
26641;DHT22;14269;47.358;0.724;2024-02-21T12:22:19;15.0;54.0
26641;DHT22;14269;47.358;0.724;2024-02-21T12:24:50;15.0;55.0
26641;DHT22;14269;47.358;0.724;2024-02-21T12:27:24;14.0;55.0
26641;DHT22;14269;47.358;0.724;2024-02-21T12:30:10;15.0;54.0
26641;DHT22;14269;47.358;0.724;2024-02-21T12:32:46;15.0;55.0
26641;DHT22;14269;47.358;0.724;2024-02-21T12:35:17;15.0;55.0
26641;DHT22;14269;47.358;0.724;2024-02-21T12:37:59;15.0;55.0
26641;DHT22;14269;47.358;0.724;2024-02-21T12:40:32;14.0;56.0
26641;DHT22;14269;47.358;0.724;2024-02-21T12:43:12;14.0;57.0
26641;DHT22;14269;47.358;0.724;2024-02-21T12:45:44;14.0;57.0
26641;DHT22;14269;47.358;0.724;2024-02-21T12:48:15;15.0;57.0
26641;DHT22;14269;47.358;0.724;2024-02-21T12:50:49;14.0;58.0
26641;DHT22;14269;47.358;0.724;2024-02-21T12:53:30;14.0;59.0
26641;DHT22;14269;47.358;0.724;2024-02-21T12:56:10;15.0;58.0
26641;DHT22;14269;47.358;0.724;2024-02-21T12:58:42;15.0;58.0
26641;DHT22;14269;47.358;0.724;2024-02-21T13:01:14;15.0;58.0
26641;DHT22;14269;47.358;0.724;2024-02-21T13:03:46;15.0;58.0
26641;DHT22;14269;47.358;0.724;2024-02-21T13:06:19;15.0;59.0
26641;DHT22;14269;47.358;0.724;2024-02-21T13:08:59;15.0;60.0
26641;DHT22;14269;47.358;0.724;2024-02-21T13:11:42;15.0;59.0
26641;DHT22;14269;47.358;0.724;2024-02-21T13:14:22;14.0;61.0
26641;DHT22;14269;47.358;0.724;2024-02-21T13:16:54;15.0;61.0
26641;DHT22;14269;47.358;0.724;2024-02-21T13:19:26;15.0;61.0
26641;DHT22;14269;47.358;0.724;2024-02-21T13:21:57;15.0;61.0
26641;DHT22;14269;47.358;0.724;2024-02-21T13:24:30;14.0;63.0
26641;DHT22;14269;47.358;0.724;2024-02-21T13:27:01;14.0;63.0
26641;DHT22;14269;47.358;0.724;2024-02-21T13:29:32;14.0;62.0
26641;DHT22;14269;47.358;0.724;2024-02-21T13:32:06;15.0;62.0
26641;DHT22;14269;47.358;0.724;2024-02-21T13:34:46;14.0;63.0
26641;DHT22;14269;47.358;0.724;2024-02-21T13:37:18;15.0;63.0
26641;DHT22;14269;47.358;0.724;2024-02-21T13:39:49;14.0;64.0
26641;DHT22;14269;47.358;0.724;2024-02-21T13:42:21;14.0;64.0
26641;DHT22;14269;47.358;0.724;2024-02-21T13:44:52;14.0;65.0
26641;DHT22;14269;47.358;0.724;2024-02-21T13:47:24;14.0;64.0
26641;DHT22;14269;47.358;0.724;2024-02-21T13:49:55;14.0;64.0
26641;DHT22;14269;47.358;0.724;2024-02-21T13:52:27;15.0;64.0
26641;DHT22;14269;47.358;0.724;2024-02-21T13:54:59;15.0;65.0
26641;DHT22;14269;47.358;0.724;2024-02-21T13:57:30;14.0;65.0
26641;DHT22;14269;47.358;0.724;2024-02-21T14:00:03;14.0;65.0
26641;DHT22;14269;47.358;0.724;2024-02-21T14:02:44;14.0;66.0
26641;DHT22;14269;47.358;0.724;2024-02-21T14:05:15;14.0;67.0
26641;DHT22;14269;47.358;0.724;2024-02-21T14:07:47;14.0;66.0
26641;DHT22;14269;47.358;0.724;2024-02-21T14:10:19;14.0;66.0
26641;DHT22;14269;47.358;0.724;2024-02-21T14:12:50;14.0;66.0
26641;DHT22;14269;47.358;0.724;2024-02-21T14:15:22;15.0;65.0
26641;DHT22;14269;47.358;0.724;2024-02-21T14:17:56;14.0;67.0
26641;DHT22;14269;47.358;0.724;2024-02-21T14:20:36;14.0;67.0
26641;DHT22;14269;47.358;0.724;2024-02-21T14:23:07;14.0;67.0
26641;DHT22;14269;47.358;0.724;2024-02-21T14:25:39;14.0;66.0
26641;DHT22;14269;47.358;0.724;2024-02-21T14:28:10;15.0;66.0
26641;DHT22;14269;47.358;0.724;2024-02-21T14:30:42;14.0;66.0
26641;DHT22;14269;47.358;0.724;2024-02-21T14:33:14;15.0;66.0
26641;DHT22;14269;47.358;0.724;2024-02-21T14:35:45;14.0;67.0
26641;DHT22;14269;47.358;0.724;2024-02-21T14:38:18;14.0;67.0
26641;DHT22;14269;47.358;0.724;2024-02-21T14:40:59;14.0;68.0
26641;DHT22;14269;47.358;0.724;2024-02-21T14:43:30;14.0;68.0
26641;DHT22;14269;47.358;0.724;2024-02-21T14:46:04;14.0;67.0
26641;DHT22;14269;47.358;0.724;2024-02-21T14:48:45;15.0;65.0
26641;DHT22;14269;47.358;0.724;2024-02-21T14:51:26;14.0;67.0
26641;DHT22;14269;47.358;0.724;2024-02-21T14:53:57;15.0;66.0
26641;DHT22;14269;47.358;0.724;2024-02-21T14:56:29;14.0;67.0
26641;DHT22;14269;47.358;0.724;2024-02-21T14:59:00;15.0;66.0
26641;DHT22;14269;47.358;0.724;2024-02-21T15:01:38;14.0;67.0
26641;DHT22;14269;47.358;0.724;2024-02-21T15:04:14;15.0;65.0
26641;DHT22;14269;47.358;0.724;2024-02-21T15:06:45;14.0;67.0
26641;DHT22;14269;47.358;0.724;2024-02-21T15:09:19;15.0;67.0
26641;DHT22;14269;47.358;0.724;2024-02-21T15:11:59;15.0;66.0
26641;DHT22;14269;47.358;0.724;2024-02-21T15:14:31;15.0;66.0
26641;DHT22;14269;47.358;0.724;2024-02-21T15:17:02;15.0;66.0
26641;DHT22;14269;47.358;0.724;2024-02-21T15:19:34;15.0;66.0
26641;DHT22;14269;47.358;0.724;2024-02-21T15:22:17;15.0;65.0
26641;DHT22;14269;47.358;0.724;2024-02-21T15:24:57;15.0;66.0
26641;DHT22;14269;47.358;0.724;2024-02-21T15:27:29;15.0;66.0
26641;DHT22;14269;47.358;0.724;2024-02-21T15:30:02;15.0;65.0
26641;DHT22;14269;47.358;0.724;2024-02-21T15:32:43;15.0;66.0
26641;DHT22;14269;47.358;0.724;2024-02-21T15:35:24;15.0;66.0
26641;DHT22;14269;47.358;0.724;2024-02-21T15:37:58;15.0;67.0
26641;DHT22;14269;47.358;0.724;2024-02-21T15:40:37;15.0;67.0
26641;DHT22;14269;47.358;0.724;2024-02-21T15:43:09;14.0;68.0
26641;DHT22;14269;47.358;0.724;2024-02-21T15:45:41;14.0;69.0
26641;DHT22;14269;47.358;0.724;2024-02-21T15:48:13;14.0;68.0
26641;DHT22;14269;47.358;0.724;2024-02-21T15:50:45;14.0;68.0
26641;DHT22;14269;47.358;0.724;2024-02-21T15:53:16;14.0;68.0
26641;DHT22;14269;47.358;0.724;2024-02-21T15:55:47;15.0;68.0
26641;DHT22;14269;47.358;0.724;2024-02-21T15:58:22;15.0;67.0
26641;DHT22;14269;47.358;0.724;2024-02-21T16:01:03;14.0;68.0
26641;DHT22;14269;47.358;0.724;2024-02-21T16:03:43;14.0;67.0
26641;DHT22;14269;47.358;0.724;2024-02-21T16:06:14;15.0;67.0
26641;DHT22;14269;47.358;0.724;2024-02-21T16:08:50;15.0;67.0
26641;DHT22;14269;47.358;0.724;2024-02-21T16:11:27;15.0;67.0
26641;DHT22;14269;47.358;0.724;2024-02-21T16:14:01;15.0;66.0
26641;DHT22;14269;47.358;0.724;2024-02-21T16:16:43;15.0;66.0
26641;DHT22;14269;47.358;0.724;2024-02-21T16:19:23;15.0;66.0
26641;DHT22;14269;47.358;0.724;2024-02-21T16:21:55;15.0;67.0
26641;DHT22;14269;47.358;0.724;2024-02-21T16:24:26;14.0;68.0
26641;DHT22;14269;47.358;0.724;2024-02-21T16:26:58;14.0;68.0
26641;DHT22;14269;47.358;0.724;2024-02-21T16:29:29;14.0;68.0
26641;DHT22;14269;47.358;0.724;2024-02-21T16:32:01;15.0;66.0
26641;DHT22;14269;47.358;0.724;2024-02-21T16:34:33;15.0;65.0
26641;DHT22;14269;47.358;0.724;2024-02-21T16:37:05;15.0;66.0
26641;DHT22;14269;47.358;0.724;2024-02-21T16:39:46;15.0;66.0
26641;DHT22;14269;47.358;0.724;2024-02-21T16:42:18;15.0;67.0
26641;DHT22;14269;47.358;0.724;2024-02-21T16:44:50;15.0;66.0